»·PEaware :: WAL829 KBOI-KBIL

WAL829 :: KBOI-KBIL

FLIGHT INFORMATION

Flight Status: Arrived
Operator:
Western Airlines
More flights by this operator :: More flights under this callsign
Pilot: Nicholas W. (36245)
Aircraft: MCDONNELL-DOUGLAS DC-6/B LIFTMASTER
(DC6)
More flights by this aircraft type
Origin: KBOI Boise Air Terminal/Gowen
United States
Destination: KBIL Billings Logan Intl
United States
More flights between these airports :: More routes between these airports
Route: BOI3 BOI V113 LKT V121 DLN BZN V86 BIL
File this flight plan on PilotEdge
Remarks: We <3 U
Altitude:
(Current/Filed)
17,000ft
Speed:
(Current/Filed)
250kts
Departed: 08-Sep-22 07:47 PM
Arrived: 08-Sep-22 09:20 PM
Distance/Time
Traveled:
354nm/1:33
Distance/Time
To Go:
Arrived

Flight Plot

Page will automatically refresh every two minutes.

Flight plan parsing failed; only flown route is shown


Map Options




Map Legend


Flown Route
Filed Route
Departure Airport
Arrival Airport
Navaid (VOR, NDB)
Fix

Horizontal Profiles

Position Reports

Time Latitude Longitude Heading Altitude Ground
Speed
08-Sep-22 19:29 43.567247 -116.222839 85 2881ft 0kts
08-Sep-22 19:30 43.567247 -116.222839 85 2881ft 0kts
08-Sep-22 19:31 43.567247 -116.222839 85 2881ft 0kts
08-Sep-22 19:32 43.567247 -116.222839 85 2881ft 0kts
08-Sep-22 19:33 43.567247 -116.222839 85 2881ft 0kts
08-Sep-22 19:34 43.567247 -116.222839 85 2881ft 0kts
08-Sep-22 19:35 43.567247 -116.222839 85 2881ft 0kts
08-Sep-22 19:36 43.567247 -116.222839 85 2881ft 0kts
08-Sep-22 19:37 43.567247 -116.222839 85 2881ft 0kts
08-Sep-22 19:38 43.567247 -116.222839 85 2881ft 0kts
08-Sep-22 19:39 43.567247 -116.222839 85 2881ft 0kts
08-Sep-22 19:40 43.567228 -116.223175 85 2881ft 0kts
08-Sep-22 19:41 43.564761 -116.217414 114 2880ft 31kts
08-Sep-22 19:42 43.561794 -116.208722 114 2881ft 18kts
08-Sep-22 19:43 43.559977 -116.203468 111 2880ft 11kts
08-Sep-22 19:44 43.559473 -116.202451 169 2880ft 0kts
08-Sep-22 19:45 43.558733 -116.203322 291 2881ft 0kts
08-Sep-22 19:46 43.563713 -116.217842 295 2891ft 114kts
08-Sep-22 19:47 43.577843 -116.263672 291 3813ft 150kts
08-Sep-22 19:48 43.593964 -116.322577 297 5050ft 172kts
08-Sep-22 19:49 43.614252 -116.382502 297 6381ft 175kts
08-Sep-22 19:50 43.645768 -116.412634 43 7438ft 177kts
08-Sep-22 19:51 43.657616 -116.344193 73 8499ft 189kts
08-Sep-22 19:52 43.668736 -116.271759 73 9697ft 196kts
08-Sep-22 19:53 43.679749 -116.197682 73 10759ft 199kts
08-Sep-22 19:54 43.690593 -116.121259 72 11842ft 205kts
08-Sep-22 19:55 43.701710 -116.042826 72 12902ft 211kts
08-Sep-22 19:56 43.712592 -115.962477 72 13906ft 214kts
08-Sep-22 19:57 43.727178 -115.883287 53 14840ft 204kts
08-Sep-22 19:58 43.762608 -115.824247 31 15751ft 200kts
08-Sep-22 19:59 43.803083 -115.769459 33 16968ft 205kts
08-Sep-22 20:00 43.849720 -115.706061 35 16999ft 256kts
08-Sep-22 20:01 43.901179 -115.635880 40 16861ft 259kts
08-Sep-22 20:02 43.953849 -115.564591 40 16944ft 273kts
08-Sep-22 20:03 44.009465 -115.488668 41 16951ft 285kts
08-Sep-22 20:04 44.066802 -115.410446 41 16955ft 292kts
08-Sep-22 20:05 44.124865 -115.330891 37 17012ft 293kts
08-Sep-22 20:06 44.181792 -115.252867 36 16931ft 280kts
08-Sep-22 20:07 44.237433 -115.176482 36 16958ft 280kts
08-Sep-22 20:08 44.292377 -115.100899 36 16944ft 274kts
08-Sep-22 20:09 44.346718 -115.025992 36 16947ft 273kts
08-Sep-22 20:10 44.400553 -114.951603 36 16966ft 273kts
08-Sep-22 20:11 44.455168 -114.876061 37 16959ft 276kts
08-Sep-22 20:12 44.509841 -114.800261 36 16967ft 278kts
08-Sep-22 20:13 44.565038 -114.723570 38 16951ft 279kts
08-Sep-22 20:14 44.619441 -114.647875 37 16978ft 277kts
08-Sep-22 20:15 44.673441 -114.572683 37 16933ft 266kts
08-Sep-22 20:16 44.725146 -114.500322 37 16944ft 262kts
08-Sep-22 20:17 44.777986 -114.426425 38 16983ft 274kts
08-Sep-22 20:18 44.832839 -114.349491 37 16999ft 281kts
08-Sep-22 20:19 44.888749 -114.272157 37 17012ft 283kts
08-Sep-22 20:20 44.944851 -114.194799 37 17001ft 281kts
08-Sep-22 20:21 44.997584 -114.115030 54 17008ft 281kts
08-Sep-22 20:22 45.030354 -114.013744 60 17106ft 283kts
08-Sep-22 20:23 45.048599 -113.904414 75 17126ft 288kts
08-Sep-22 20:24 45.065285 -113.791889 74 17108ft 291kts
08-Sep-22 20:25 45.082001 -113.680437 74 17106ft 291kts
08-Sep-22 20:26 45.098966 -113.567560 74 17072ft 294kts
08-Sep-22 20:27 45.115818 -113.455390 74 17039ft 289kts
08-Sep-22 20:28 45.132603 -113.343346 74 17017ft 291kts
08-Sep-22 20:29 45.149203 -113.232446 74 17018ft 286kts
08-Sep-22 20:30 45.166333 -113.122122 74 17020ft 287kts
08-Sep-22 20:31 45.184307 -113.011605 74 17038ft 289kts
08-Sep-22 20:32 45.202518 -112.900299 74 17067ft 289kts
08-Sep-22 20:33 45.221301 -112.789249 74 17123ft 289kts
08-Sep-22 20:34 45.236210 -112.676970 80 17164ft 290kts
08-Sep-22 20:35 45.248768 -112.563627 78 17053ft 292kts
08-Sep-22 20:36 45.283871 -112.463577 71 17005ft 283kts
08-Sep-22 20:37 45.315001 -112.369417 38 17036ft 274kts
08-Sep-22 20:38 45.360883 -112.281186 56 17037ft 283kts
08-Sep-22 20:39 45.400699 -112.183823 57 17038ft 285kts
08-Sep-22 20:40 45.440859 -112.085628 57 17052ft 287kts
08-Sep-22 20:41 45.481212 -111.987431 57 17058ft 288kts
08-Sep-22 20:43 45.521780 -111.888922 57 17051ft 286kts
08-Sep-22 20:44 45.561909 -111.790762 57 17066ft 286kts
08-Sep-22 20:45 45.601713 -111.692312 57 17071ft 287kts
08-Sep-22 20:46 45.639342 -111.592115 78 17060ft 287kts
08-Sep-22 20:47 45.643788 -111.478408 87 17063ft 287kts
08-Sep-22 20:48 45.647729 -111.364395 86 17065ft 287kts
08-Sep-22 20:49 45.653181 -111.250859 84 17069ft 286kts
08-Sep-22 20:50 45.659916 -111.137378 84 17078ft 286kts
08-Sep-22 20:51 45.666900 -111.023681 84 17074ft 287kts
08-Sep-22 20:52 45.673820 -110.910350 84 17087ft 288kts
08-Sep-22 20:53 45.680776 -110.796617 84 17084ft 288kts
08-Sep-22 20:54 45.687883 -110.682465 84 17084ft 287kts
08-Sep-22 20:55 45.695249 -110.569207 84 17214ft 287kts
08-Sep-22 20:56 45.702693 -110.455453 84 17212ft 287kts
08-Sep-22 20:57 45.709990 -110.343158 82 16861ft 276kts
08-Sep-22 20:58 45.717755 -110.235021 84 16306ft 272kts
08-Sep-22 20:59 45.725671 -110.127124 84 15724ft 272kts
08-Sep-22 21:00 45.733530 -110.019995 85 14941ft 271kts
08-Sep-22 21:01 45.741392 -109.912823 85 14273ft 269kts
08-Sep-22 21:02 45.749178 -109.806688 86 13722ft 269kts
08-Sep-22 21:03 45.757408 -109.701345 84 12984ft 264kts
08-Sep-22 21:04 45.766138 -109.596010 84 12248ft 268kts
08-Sep-22 21:05 45.770637 -109.489804 97 11412ft 265kts
08-Sep-22 21:05 45.767267 -109.401936 90 10816ft 264kts
08-Sep-22 21:07 45.770229 -109.279211 87 10019ft 263kts
08-Sep-22 21:08 45.779493 -109.178406 64 9224ft 253kts
08-Sep-22 21:09 45.815660 -109.093228 58 8451ft 249kts
08-Sep-22 21:10 45.850358 -109.010697 58 7681ft 216kts
08-Sep-22 21:10 45.872727 -108.953414 71 6837ft 187kts
08-Sep-22 21:11 45.875883 -108.880919 85 5842ft 171kts
08-Sep-22 21:12 45.875995 -108.823213 85 6040ft 127kts
08-Sep-22 21:14 45.871846 -108.767391 100 6059ft 119kts
08-Sep-22 21:15 45.858604 -108.719829 106 6090ft 136kts
08-Sep-22 21:15 45.845485 -108.672493 105 5434ft 159kts
08-Sep-22 21:16 45.830340 -108.618173 103 4626ft 118kts
08-Sep-22 21:17 45.819076 -108.578242 107 4129ft 106kts
08-Sep-22 21:18 45.809313 -108.542429 113 3621ft 75kts
08-Sep-22 21:19 45.807058 -108.537459 200 3621ft 0kts
08-Sep-22 21:20 45.806389 -108.537817 198 3622ft 14kts
08-Sep-22 21:21 45.804420 -108.538196 180 3622ft 0kts
08-Sep-22 21:22 45.804420 -108.538196 180 3622ft 0kts
08-Sep-22 21:23 45.804420 -108.538196 180 3622ft 0kts
08-Sep-22 21:24 45.804420 -108.538196 180 3622ft 0kts
08-Sep-22 21:25 45.804420 -108.538196 180 3622ft 0kts

Navigation Log

Ident Type
Flight plan parsing failed, navigation log unavailable